KSSI/SSI METAR and TAF weather

Enter ICAO airport designator
Station Type Date Time Source
KSSI METAR 2022/05/23 13:53 UTC NOAA

KSSI 231353Z AUTO 17008G19KT 10SM FEW013 27/23 A3014 RMK AO2 SLP208 T02670233 $


Station Type Date Time Source
KSSI Decoded METAR 2022/05/23 13:53 UTC NOAA

BRUNSWICK MC KINNON AIRPORT , GA, United States (KSSI) 31-09N 081-23W 6M
May 23, 2022 - 09:53 AM EDT / 2022.05.23 1353 UTC
Wind: from the S (170 degrees) at 9 MPH (8 KT) gusting to 22 MPH (19 KT):0
Visibility: 10 mile(s):0
Sky conditions: mostly clear
Temperature: 80.1 F (26.7 C)
Dew Point: 73.9 F (23.3 C)
Relative Humidity: 81%
Pressure (altimeter): 30.14 in. Hg (1020 hPa)
ob: KSSI 231353Z AUTO 17008G19KT 10SM FEW013 27/23 A3014 RMK AO2 SLP208 T02670233
cycle: 14

Station Type Date Time Source
KSSI TAF 2022/05/23 12:39 UTC NOAA

TAF KSSI 231135Z 2312/2412 16008KT P6SM BKN012 BKN250
FM231500 16011KT P6SM BKN025 BKN250
FM232000 13012KT P6SM VCTS BKN050CB BKN250
TEMPO 2321/2401 VRB15G25KT 3SM TSRA OVC030CB
FM240400 18005KT P6SM BKN030 BKN200

Example: see airport list